メインページ
METAR-TAF:

METAR-TAF

空港 :

クウェート, クウェート

クウェート国際空港

緯度: 29-13N, 経度: 047-59E, 海抜: 55m

現時点の気象観測

当レポートは33分前の19:00(UTC)に作成
無風
気温 16°C
湿度 72%
気圧 1015 hPa
視程10km以上
1,500メートル以下は雲なし、積乱雲なし

METAR: OKBK 251900Z 00000KT CAVOK 16/11 Q1015 NOSIG

時間: 22:33 (19:33 UTC)

予報

当レポートは14時間48分前の04:45(UTC)に作成
予報は25日の 06時(UTC)から 26日の 12時(UTC)まで有効
北/北西の風 12kt
視程: 2500m
25日の 07時(UTC)から 25日の 09時(UTC)まで徐々に
視程: 6000m
晴天

TAF: OKBK 250445Z 2506/2612 33012KT 2500 BR NSC BECMG 2507/2509 6000 SKC

4,000以上の空港の気象観測と天気予報(METAR報とTAF報)

利用可能な観測所は地図上に黄色い丸と赤い丸で示す。

丸の上にカーソルを重ねると観測所名を参照できる。

次にクリックすると気象観測と天気予報を参照できる。

マップの切り替え:黒色「×」印の緑ボタンをクリックして拡大、「-」印の緑ボタンをクリックして縮小、緑色の三角印をクリックして隣りの地図に切り替え


METAR-TAF: